Terminal Aerodrome Forecast
Issued by NWS

Home | Current Version | Previous Version | Text Only | Print | Product List | Glossary On
Versions: 1 2 3 4 5 6 7 8 9 10 11 12 13 14 15 16 17
000
FTUS46 KPDT 181200 CCA
TAFRDM
TAF COR
KRDM 181218Z 1812/1912 18007KT P6SM SCT080 BKN110
     FM181800 28008G15KT P6SM SCT070 BKN100
     FM182100 30010G19KT P6SM VCTS SCT070CB BKN090
     FM190300 30008KT P6SM SCT070 BKN090=

USA.gov is the U.S. government's official web portal to all federal, state and local government web resources and services.